Terminal Aerodrome Forecast
Issued by NWS

Home | Current Version | Previous Version | Text Only | Print | Product List | Glossary On
Versions: 1 2 3 4 5 6 7 8 9 10 11 12 13 14 15 16 17 18 19 20 21 22 23 24
332
FTUS46 KEKA 252133 AAA
TAFCEC
TAF AMD
KCEC 252133Z 2522/2618 34010KT P6SM SKC
     FM260300 35005KT P6SM SKC
     FM260800 VRB03KT P6SM SCT100
     FM261400 18007KT P6SM -RA OVC040=

USA.gov is the U.S. government's official web portal to all federal, state and local government web resources and services.